sensor_id;sensor_type;location;lat;lon;timestamp;pressure;altitude;pressure_sealevel;temperature;humidity
37202;BME280;37799;52.390;6.136;2024-01-11T00:02:07;103326.94;;;-7.69;100.00
37202;BME280;37799;52.390;6.136;2024-01-11T00:04:32;103324.84;;;-7.64;100.00
37202;BME280;37799;52.390;6.136;2024-01-11T00:06:58;103326.63;;;-7.63;100.00
37202;BME280;37799;52.390;6.136;2024-01-11T00:09:23;103321.91;;;-7.69;100.00
37202;BME280;37799;52.390;6.136;2024-01-11T00:11:49;103326.69;;;-7.72;100.00
37202;BME280;37799;52.390;6.136;2024-01-11T00:14:14;103324.53;;;-7.78;100.00
37202;BME280;37799;52.390;6.136;2024-01-11T00:16:40;103322.75;;;-7.79;100.00
37202;BME280;37799;52.390;6.136;2024-01-11T00:19:06;103327.19;;;-7.76;100.00
37202;BME280;37799;52.390;6.136;2024-01-11T00:21:31;103324.59;;;-7.67;100.00
37202;BME280;37799;52.390;6.136;2024-01-11T00:23:57;103324.09;;;-7.63;100.00
37202;BME280;37799;52.390;6.136;2024-01-11T00:26:22;103329.88;;;-7.64;100.00
37202;BME280;37799;52.390;6.136;2024-01-11T00:28:47;103330.75;;;-7.64;100.00
37202;BME280;37799;52.390;6.136;2024-01-11T00:31:12;103329.66;;;-7.57;100.00
37202;BME280;37799;52.390;6.136;2024-01-11T00:33:39;103324.34;;;-7.60;100.00
37202;BME280;37799;52.390;6.136;2024-01-11T00:36:04;103321.34;;;-7.56;100.00
37202;BME280;37799;52.390;6.136;2024-01-11T00:38:30;103321.84;;;-7.60;100.00
37202;BME280;37799;52.390;6.136;2024-01-11T00:40:55;103322.09;;;-7.57;100.00
37202;BME280;37799;52.390;6.136;2024-01-11T00:43:20;103326.44;;;-7.46;100.00
37202;BME280;37799;52.390;6.136;2024-01-11T00:45:45;103324.34;;;-7.41;100.00
37202;BME280;37799;52.390;6.136;2024-01-11T00:48:11;103329.00;;;-7.36;100.00
37202;BME280;37799;52.390;6.136;2024-01-11T00:50:37;103324.22;;;-7.33;100.00
37202;BME280;37799;52.390;6.136;2024-01-11T00:53:02;103326.00;;;-7.32;100.00
37202;BME280;37799;52.390;6.136;2024-01-11T00:55:28;103323.47;;;-7.32;100.00
37202;BME280;37799;52.390;6.136;2024-01-11T00:57:54;103324.03;;;-7.26;100.00
37202;BME280;37799;52.390;6.136;2024-01-11T01:00:19;103324.03;;;-7.26;100.00
37202;BME280;37799;52.390;6.136;2024-01-11T01:02:45;103319.38;;;-7.21;100.00
37202;BME280;37799;52.390;6.136;2024-01-11T01:05:10;103320.75;;;-7.25;100.00
37202;BME280;37799;52.390;6.136;2024-01-11T01:07:36;103326.78;;;-7.23;100.00
37202;BME280;37799;52.390;6.136;2024-01-11T01:10:01;103332.91;;;-7.29;100.00
37202;BME280;37799;52.390;6.136;2024-01-11T01:12:27;103326.78;;;-7.23;100.00
37202;BME280;37799;52.390;6.136;2024-01-11T01:14:54;103329.59;;;-7.09;100.00
37202;BME280;37799;52.390;6.136;2024-01-11T01:17:19;103325.94;;;-7.13;100.00
37202;BME280;37799;52.390;6.136;2024-01-11T01:19:44;103336.34;;;-7.19;100.00
37202;BME280;37799;52.390;6.136;2024-01-11T01:22:10;103331.56;;;-7.26;100.00
37202;BME280;37799;52.390;6.136;2024-01-11T01:24:35;103334.03;;;-7.36;100.00
37202;BME280;37799;52.390;6.136;2024-01-11T01:27:00;103342.09;;;-7.40;100.00
37202;BME280;37799;52.390;6.136;2024-01-11T01:29:26;103339.69;;;-7.38;100.00
37202;BME280;37799;52.390;6.136;2024-01-11T01:31:52;103350.19;;;-7.24;100.00
37202;BME280;37799;52.390;6.136;2024-01-11T01:34:17;103345.03;;;-7.25;100.00
37202;BME280;37799;52.390;6.136;2024-01-11T01:36:43;103344.28;;;-7.24;100.00
37202;BME280;37799;52.390;6.136;2024-01-11T01:39:08;103341.09;;;-7.32;100.00
37202;BME280;37799;52.390;6.136;2024-01-11T01:41:33;103337.06;;;-7.40;100.00
37202;BME280;37799;52.390;6.136;2024-01-11T01:43:59;103348.13;;;-7.38;100.00
37202;BME280;37799;52.390;6.136;2024-01-11T01:46:25;103352.66;;;-7.34;100.00
37202;BME280;37799;52.390;6.136;2024-01-11T01:48:55;103348.88;;;-7.39;100.00
37202;BME280;37799;52.390;6.136;2024-01-11T01:51:22;103350.38;;;-7.41;100.00
37202;BME280;37799;52.390;6.136;2024-01-11T01:53:50;103355.88;;;-7.45;100.00
37202;BME280;37799;52.390;6.136;2024-01-11T01:56:19;103359.91;;;-7.47;100.00
37202;BME280;37799;52.390;6.136;2024-01-11T01:58:45;103360.41;;;-7.51;100.00
37202;BME280;37799;52.390;6.136;2024-01-11T02:01:11;103352.03;;;-7.60;100.00
37202;BME280;37799;52.390;6.136;2024-01-11T02:03:38;103350.34;;;-7.70;100.00
37202;BME280;37799;52.390;6.136;2024-01-11T02:06:05;103358.00;;;-7.68;100.00
37202;BME280;37799;52.390;6.136;2024-01-11T02:08:31;103360.53;;;-7.68;100.00
37202;BME280;37799;52.390;6.136;2024-01-11T02:10:59;103354.78;;;-7.67;100.00
37202;BME280;37799;52.390;6.136;2024-01-11T02:13:25;103349.69;;;-7.78;100.00
37202;BME280;37799;52.390;6.136;2024-01-11T02:15:50;103334.78;;;-7.85;100.00
37202;BME280;37799;52.390;6.136;2024-01-11T02:18:16;103338.81;;;-7.87;100.00
37202;BME280;37799;52.390;6.136;2024-01-11T02:20:41;103331.47;;;-7.94;100.00
37202;BME280;37799;52.390;6.136;2024-01-11T02:23:12;103333.16;;;-8.03;100.00
37202;BME280;37799;52.390;6.136;2024-01-11T02:25:39;103338.19;;;-8.03;100.00
37202;BME280;37799;52.390;6.136;2024-01-11T02:28:05;103350.03;;;-8.02;100.00
37202;BME280;37799;52.390;6.136;2024-01-11T02:30:30;103348.78;;;-7.97;100.00
37202;BME280;37799;52.390;6.136;2024-01-11T02:32:56;103342.88;;;-7.97;100.00
37202;BME280;37799;52.390;6.136;2024-01-11T02:35:23;103351.28;;;-7.97;100.00
37202;BME280;37799;52.390;6.136;2024-01-11T02:37:49;103344.06;;;-7.94;100.00
37202;BME280;37799;52.390;6.136;2024-01-11T02:40:15;103345.31;;;-7.89;100.00
37202;BME280;37799;52.390;6.136;2024-01-11T02:42:41;103346.59;;;-7.84;100.00
37202;BME280;37799;52.390;6.136;2024-01-11T02:45:07;103338.31;;;-7.83;100.00
37202;BME280;37799;52.390;6.136;2024-01-11T02:47:32;103338.31;;;-7.83;100.00
37202;BME280;37799;52.390;6.136;2024-01-11T02:49:58;103349.59;;;-7.88;100.00
37202;BME280;37799;52.390;6.136;2024-01-11T02:52:23;103346.56;;;-7.94;100.00
37202;BME280;37799;52.390;6.136;2024-01-11T02:54:49;103347.84;;;-7.89;100.00
37202;BME280;37799;52.390;6.136;2024-01-11T02:57:14;103345.66;;;-7.76;100.00
37202;BME280;37799;52.390;6.136;2024-01-11T02:59:40;103336.34;;;-7.77;100.00
37202;BME280;37799;52.390;6.136;2024-01-11T03:02:05;103340.63;;;-7.76;100.00
37202;BME280;37799;52.390;6.136;2024-01-11T03:04:31;103354.72;;;-7.78;100.00
37202;BME280;37799;52.390;6.136;2024-01-11T03:06:56;103344.78;;;-7.76;100.00
37202;BME280;37799;52.390;6.136;2024-01-11T03:09:21;103350.13;;;-7.82;100.00
37202;BME280;37799;52.390;6.136;2024-01-11T03:11:47;103355.09;;;-7.73;100.00
37202;BME280;37799;52.390;6.136;2024-01-11T03:14:12;103353.47;;;-7.73;100.00
37202;BME280;37799;52.390;6.136;2024-01-11T03:16:38;103347.44;;;-7.75;100.00
37202;BME280;37799;52.390;6.136;2024-01-11T03:19:05;103343.63;;;-7.80;100.00
37202;BME280;37799;52.390;6.136;2024-01-11T03:21:30;103347.16;;;-7.78;100.00
37202;BME280;37799;52.390;6.136;2024-01-11T03:23:55;103341.56;;;-7.84;100.00
37202;BME280;37799;52.390;6.136;2024-01-11T03:26:21;103352.19;;;-7.78;100.00
37202;BME280;37799;52.390;6.136;2024-01-11T03:28:46;103342.41;;;-7.75;100.00
37202;BME280;37799;52.390;6.136;2024-01-11T03:31:12;103348.56;;;-7.71;100.00
37202;BME280;37799;52.390;6.136;2024-01-11T03:33:37;103354.84;;;-7.76;100.00
37202;BME280;37799;52.390;6.136;2024-01-11T03:36:10;103368.06;;;-7.68;100.00
37202;BME280;37799;52.390;6.136;2024-01-11T03:38:35;103361.56;;;-7.66;100.00
37202;BME280;37799;52.390;6.136;2024-01-11T03:41:01;103369.44;;;-7.53;100.00
37202;BME280;37799;52.390;6.136;2024-01-11T03:43:26;103366.88;;;-7.63;100.00
37202;BME280;37799;52.390;6.136;2024-01-11T03:45:52;103371.84;;;-7.74;100.00
37202;BME280;37799;52.390;6.136;2024-01-11T03:48:17;103373.09;;;-7.68;100.00
37202;BME280;37799;52.390;6.136;2024-01-11T03:50:42;103367.28;;;-7.78;100.00
37202;BME280;37799;52.390;6.136;2024-01-11T03:53:08;103355.91;;;-7.83;100.00
37202;BME280;37799;52.390;6.136;2024-01-11T03:55:33;103361.31;;;-7.88;100.00
37202;BME280;37799;52.390;6.136;2024-01-11T03:57:58;103364.09;;;-7.85;100.00
37202;BME280;37799;52.390;6.136;2024-01-11T04:00:24;103380.41;;;-7.90;100.00
37202;BME280;37799;52.390;6.136;2024-01-11T04:02:49;103385.16;;;-7.93;100.00
37202;BME280;37799;52.390;6.136;2024-01-11T04:05:14;103395.88;;;-7.86;100.00
37202;BME280;37799;52.390;6.136;2024-01-11T04:07:41;103401.19;;;-7.83;100.00
37202;BME280;37799;52.390;6.136;2024-01-11T04:10:06;103401.34;;;-7.81;100.00
37202;BME280;37799;52.390;6.136;2024-01-11T04:12:33;103397.72;;;-7.75;100.00
37202;BME280;37799;52.390;6.136;2024-01-11T04:14:58;103396.59;;;-7.78;100.00
37202;BME280;37799;52.390;6.136;2024-01-11T04:17:24;103396.31;;;-7.81;100.00
37202;BME280;37799;52.390;6.136;2024-01-11T04:19:49;103397.47;;;-7.78;100.00
37202;BME280;37799;52.390;6.136;2024-01-11T04:22:14;103395.63;;;-7.89;100.00
37202;BME280;37799;52.390;6.136;2024-01-11T04:24:41;103397.38;;;-7.88;100.00
37202;BME280;37799;52.390;6.136;2024-01-11T04:27:07;103398.75;;;-7.91;100.00
37202;BME280;37799;52.390;6.136;2024-01-11T04:29:32;103398.19;;;-7.97;100.00
37202;BME280;37799;52.390;6.136;2024-01-11T04:31:57;103403.84;;;-8.00;100.00
37202;BME280;37799;52.390;6.136;2024-01-11T04:34:23;103399.41;;;-8.03;100.00
37202;BME280;37799;52.390;6.136;2024-01-11T04:36:49;103402.81;;;-8.02;100.00
37202;BME280;37799;52.390;6.136;2024-01-11T04:39:14;103396.16;;;-8.02;100.00
37202;BME280;37799;52.390;6.136;2024-01-11T04:41:40;103385.09;;;-8.04;100.00
37202;BME280;37799;52.390;6.136;2024-01-11T04:44:05;103393.50;;;-8.03;100.00
37202;BME280;37799;52.390;6.136;2024-01-11T04:46:31;103398.53;;;-8.03;100.00
37202;BME280;37799;52.390;6.136;2024-01-11T04:48:56;103394.69;;;-8.08;100.00
37202;BME280;37799;52.390;6.136;2024-01-11T04:51:22;103376.31;;;-8.17;100.00
37202;BME280;37799;52.390;6.136;2024-01-11T04:53:47;103375.31;;;-8.28;100.00
37202;BME280;37799;52.390;6.136;2024-01-11T04:56:16;103363.25;;;-8.32;100.00
37202;BME280;37799;52.390;6.136;2024-01-11T04:58:42;103357.59;;;-8.29;100.00
37202;BME280;37799;52.390;6.136;2024-01-11T05:01:17;103355.84;;;-8.30;100.00
37202;BME280;37799;52.390;6.136;2024-01-11T05:03:44;103357.34;;;-8.33;100.00
37202;BME280;37799;52.390;6.136;2024-01-11T05:06:21;103361.66;;;-8.21;100.00
37202;BME280;37799;52.390;6.136;2024-01-11T05:08:47;103351.56;;;-8.32;100.00
37202;BME280;37799;52.390;6.136;2024-01-11T05:13:42;103343.41;;;-8.29;100.00
37202;BME280;37799;52.390;6.136;2024-01-11T05:16:18;103348.34;;;-8.20;100.00
37202;BME280;37799;52.390;6.136;2024-01-11T05:18:44;103352.66;;;-8.19;100.00
37202;BME280;37799;52.390;6.136;2024-01-11T05:21:10;103352.72;;;-8.09;100.00
37202;BME280;37799;52.390;6.136;2024-01-11T05:23:35;103357.28;;;-8.05;100.00
37202;BME280;37799;52.390;6.136;2024-01-11T05:26:00;103366.00;;;-8.02;100.00
37202;BME280;37799;52.390;6.136;2024-01-11T05:28:27;103369.25;;;-8.03;100.00
37202;BME280;37799;52.390;6.136;2024-01-11T05:30:52;103372.56;;;-8.12;100.00
37202;BME280;37799;52.390;6.136;2024-01-11T05:33:17;103360.22;;;-8.19;100.00
37202;BME280;37799;52.390;6.136;2024-01-11T05:35:43;103359.47;;;-8.18;100.00
37202;BME280;37799;52.390;6.136;2024-01-11T05:38:08;103378.34;;;-8.13;100.00
37202;BME280;37799;52.390;6.136;2024-01-11T05:40:33;103413.63;;;-8.03;100.00
37202;BME280;37799;52.390;6.136;2024-01-11T05:42:58;103397.44;;;-7.96;100.00
37202;BME280;37799;52.390;6.136;2024-01-11T05:45:24;103405.88;;;-7.96;100.00
37202;BME280;37799;52.390;6.136;2024-01-11T05:47:49;103403.34;;;-7.96;100.00
37202;BME280;37799;52.390;6.136;2024-01-11T05:50:14;103400.09;;;-7.95;100.00
37202;BME280;37799;52.390;6.136;2024-01-11T05:52:40;103403.44;;;-7.86;100.00
37202;BME280;37799;52.390;6.136;2024-01-11T05:55:05;103408.47;;;-7.86;100.00
37202;BME280;37799;52.390;6.136;2024-01-11T05:57:31;103407.72;;;-7.85;100.00
37202;BME280;37799;52.390;6.136;2024-01-11T05:59:56;103415.81;;;-7.79;100.00
37202;BME280;37799;52.390;6.136;2024-01-11T06:02:22;103432.03;;;-7.66;100.00
37202;BME280;37799;52.390;6.136;2024-01-11T06:04:47;103437.09;;;-7.56;100.00
37202;BME280;37799;52.390;6.136;2024-01-11T06:07:14;103449.00;;;-7.45;100.00
37202;BME280;37799;52.390;6.136;2024-01-11T06:09:39;103448.75;;;-7.48;100.00
37202;BME280;37799;52.390;6.136;2024-01-11T06:12:05;103460.38;;;-7.40;100.00
37202;BME280;37799;52.390;6.136;2024-01-11T06:14:30;103470.31;;;-7.41;100.00
37202;BME280;37799;52.390;6.136;2024-01-11T06:16:55;103456.75;;;-7.33;100.00
37202;BME280;37799;52.390;6.136;2024-01-11T06:19:21;103456.88;;;-7.32;100.00
37202;BME280;37799;52.390;6.136;2024-01-11T06:21:46;103463.28;;;-7.35;100.00
37202;BME280;37799;52.390;6.136;2024-01-11T06:24:12;103461.22;;;-7.21;100.00
37202;BME280;37799;52.390;6.136;2024-01-11T06:26:37;103464.13;;;-7.26;100.00
37202;BME280;37799;52.390;6.136;2024-01-11T06:29:02;103454.66;;;-7.29;100.00
37202;BME280;37799;52.390;6.136;2024-01-11T06:31:27;103456.56;;;-7.26;100.00
37202;BME280;37799;52.390;6.136;2024-01-11T06:33:53;103461.78;;;-7.33;100.00
37202;BME280;37799;52.390;6.136;2024-01-11T06:36:18;103463.75;;;-7.21;100.00
37202;BME280;37799;52.390;6.136;2024-01-11T06:38:43;103459.53;;;-7.30;100.00
37202;BME280;37799;52.390;6.136;2024-01-11T06:41:09;103452.53;;;-7.43;100.00
37202;BME280;37799;52.390;6.136;2024-01-11T06:43:34;103446.97;;;-7.49;100.00
37202;BME280;37799;52.390;6.136;2024-01-11T06:46:06;103429.00;;;-7.62;100.00
37202;BME280;37799;52.390;6.136;2024-01-11T06:48:32;103422.72;;;-7.67;100.00
37202;BME280;37799;52.390;6.136;2024-01-11T06:50:57;103416.94;;;-7.66;100.00
37202;BME280;37799;52.390;6.136;2024-01-11T06:53:23;103420.31;;;-7.66;100.00
37202;BME280;37799;52.390;6.136;2024-01-11T06:55:48;103432.03;;;-7.66;100.00
37202;BME280;37799;52.390;6.136;2024-01-11T06:58:15;103422.28;;;-7.72;100.00
37202;BME280;37799;52.390;6.136;2024-01-11T07:00:41;103431.13;;;-7.67;100.00
37202;BME280;37799;52.390;6.136;2024-01-11T07:03:09;103429.50;;;-7.66;100.00
37202;BME280;37799;52.390;6.136;2024-01-11T07:05:35;103432.41;;;-7.62;100.00
37202;BME280;37799;52.390;6.136;2024-01-11T07:08:01;103427.56;;;-7.69;100.00
37202;BME280;37799;52.390;6.136;2024-01-11T07:10:26;103430.56;;;-7.73;100.00
37202;BME280;37799;52.390;6.136;2024-01-11T07:12:51;103439.13;;;-7.71;100.00
37202;BME280;37799;52.390;6.136;2024-01-11T07:15:16;103436.34;;;-7.74;100.00
37202;BME280;37799;52.390;6.136;2024-01-11T07:17:42;103433.09;;;-7.73;100.00
37202;BME280;37799;52.390;6.136;2024-01-11T07:20:08;103441.66;;;-7.71;100.00
37202;BME280;37799;52.390;6.136;2024-01-11T07:22:34;103445.03;;;-7.70;100.00
37202;BME280;37799;52.390;6.136;2024-01-11T07:24:59;103447.56;;;-7.70;100.00
37202;BME280;37799;52.390;6.136;2024-01-11T07:27:25;103440.63;;;-7.73;100.00
37202;BME280;37799;52.390;6.136;2024-01-11T07:29:50;103440.72;;;-7.63;100.00
37202;BME280;37799;52.390;6.136;2024-01-11T07:32:16;103428.13;;;-7.63;100.00
37202;BME280;37799;52.390;6.136;2024-01-11T07:34:41;103420.91;;;-7.68;100.00
37202;BME280;37799;52.390;6.136;2024-01-11T07:37:06;103436.06;;;-7.58;100.00
37202;BME280;37799;52.390;6.136;2024-01-11T07:39:32;103450.22;;;-7.50;100.00
37202;BME280;37799;52.390;6.136;2024-01-11T07:41:58;103440.13;;;-7.41;100.00
37202;BME280;37799;52.390;6.136;2024-01-11T07:44:23;103446.78;;;-7.42;100.00
37202;BME280;37799;52.390;6.136;2024-01-11T07:46:48;103443.53;;;-7.31;100.00
37202;BME280;37799;52.390;6.136;2024-01-11T07:49:14;103437.63;;;-7.13;100.00
37202;BME280;37799;52.390;6.136;2024-01-11T07:51:40;103439.91;;;-7.05;100.00
37202;BME280;37799;52.390;6.136;2024-01-11T07:54:05;103440.91;;;-7.03;100.00
37202;BME280;37799;52.390;6.136;2024-01-11T07:56:31;103450.03;;;-6.95;100.00
37202;BME280;37799;52.390;6.136;2024-01-11T07:58:56;103457.00;;;-6.82;100.00
37202;BME280;37799;52.390;6.136;2024-01-11T08:01:21;103466.97;;;-6.84;100.00
37202;BME280;37799;52.390;6.136;2024-01-11T08:03:47;103473.81;;;-6.73;100.00
37202;BME280;37799;52.390;6.136;2024-01-11T08:06:13;103478.47;;;-6.67;100.00
37202;BME280;37799;52.390;6.136;2024-01-11T08:08:38;103485.50;;;-6.44;100.00
37202;BME280;37799;52.390;6.136;2024-01-11T08:11:09;103501.50;;;-6.44;100.00
37202;BME280;37799;52.390;6.136;2024-01-11T08:13:35;103496.25;;;-6.27;100.00
37202;BME280;37799;52.390;6.136;2024-01-11T08:16:03;103498.19;;;-6.24;100.00
37202;BME280;37799;52.390;6.136;2024-01-11T08:18:32;103496.56;;;-6.03;100.00
37202;BME280;37799;52.390;6.136;2024-01-11T08:20:58;103496.16;;;-5.87;100.00
37202;BME280;37799;52.390;6.136;2024-01-11T08:23:23;103488.59;;;-5.77;100.00
37202;BME280;37799;52.390;6.136;2024-01-11T08:25:48;103484.03;;;-5.61;100.00
37202;BME280;37799;52.390;6.136;2024-01-11T08:28:14;103482.28;;;-5.52;100.00
37202;BME280;37799;52.390;6.136;2024-01-11T08:30:39;103493.66;;;-5.47;100.00
37202;BME280;37799;52.390;6.136;2024-01-11T08:33:04;103481.50;;;-5.41;100.00
37202;BME280;37799;52.390;6.136;2024-01-11T08:35:30;103478.19;;;-5.19;100.00
37202;BME280;37799;52.390;6.136;2024-01-11T08:37:57;103473.38;;;-5.16;100.00
37202;BME280;37799;52.390;6.136;2024-01-11T08:40:22;103473.25;;;-5.08;100.00
37202;BME280;37799;52.390;6.136;2024-01-11T08:42:48;103471.84;;;-5.04;100.00
37202;BME280;37799;52.390;6.136;2024-01-11T08:45:13;103474.47;;;-4.92;100.00
37202;BME280;37799;52.390;6.136;2024-01-11T08:47:45;103478.06;;;-4.79;100.00
37202;BME280;37799;52.390;6.136;2024-01-11T08:50:15;103487.66;;;-4.75;100.00
37202;BME280;37799;52.390;6.136;2024-01-11T08:52:41;103492.16;;;-4.70;100.00
37202;BME280;37799;52.390;6.136;2024-01-11T08:55:07;103489.50;;;-4.62;100.00
37202;BME280;37799;52.390;6.136;2024-01-11T08:57:33;103490.09;;;-4.54;100.00
37202;BME280;37799;52.390;6.136;2024-01-11T09:00:01;103492.56;;;-4.44;100.00
37202;BME280;37799;52.390;6.136;2024-01-11T09:02:26;103501.41;;;-4.39;100.00
37202;BME280;37799;52.390;6.136;2024-01-11T09:04:51;103503.16;;;-4.38;100.00
37202;BME280;37799;52.390;6.136;2024-01-11T09:07:17;103498.34;;;-4.35;100.00
37202;BME280;37799;52.390;6.136;2024-01-11T09:09:42;103507.28;;;-4.28;100.00
37202;BME280;37799;52.390;6.136;2024-01-11T09:12:08;103507.22;;;-4.18;100.00
37202;BME280;37799;52.390;6.136;2024-01-11T09:14:33;103502.53;;;-4.13;100.00
37202;BME280;37799;52.390;6.136;2024-01-11T09:16:58;103499.44;;;-4.09;100.00
37202;BME280;37799;52.390;6.136;2024-01-11T09:19:24;103491.69;;;-4.01;100.00
37202;BME280;37799;52.390;6.136;2024-01-11T09:21:49;103489.47;;;-3.96;100.00
37202;BME280;37799;52.390;6.136;2024-01-11T09:24:14;103490.19;;;-3.87;100.00
37202;BME280;37799;52.390;6.136;2024-01-11T09:26:40;103487.69;;;-3.75;100.00
37202;BME280;37799;52.390;6.136;2024-01-11T09:29:05;103495.63;;;-3.71;100.00
37202;BME280;37799;52.390;6.136;2024-01-11T09:31:30;103503.25;;;-3.59;100.00
37202;BME280;37799;52.390;6.136;2024-01-11T09:33:56;103507.47;;;-3.48;100.00
37202;BME280;37799;52.390;6.136;2024-01-11T09:36:22;103520.56;;;-3.42;100.00
37202;BME280;37799;52.390;6.136;2024-01-11T09:38:47;103507.56;;;-3.46;100.00
37202;BME280;37799;52.390;6.136;2024-01-11T09:41:13;103510.03;;;-3.36;100.00
37202;BME280;37799;52.390;6.136;2024-01-11T09:43:42;103513.97;;;-3.28;100.00
37202;BME280;37799;52.390;6.136;2024-01-11T09:46:09;103516.41;;;-3.18;100.00
37202;BME280;37799;52.390;6.136;2024-01-11T09:48:36;103515.44;;;-3.08;100.00
37202;BME280;37799;52.390;6.136;2024-01-11T09:51:03;103503.75;;;-3.06;100.00
37202;BME280;37799;52.390;6.136;2024-01-11T09:53:33;103512.56;;;-3.01;100.00
37202;BME280;37799;52.390;6.136;2024-01-11T09:55:59;103512.66;;;-3.00;100.00
37202;BME280;37799;52.390;6.136;2024-01-11T09:58:25;103508.47;;;-2.87;100.00
37202;BME280;37799;52.390;6.136;2024-01-11T10:00:55;103509.59;;;-2.84;100.00
37202;BME280;37799;52.390;6.136;2024-01-11T10:03:24;103513.00;;;-2.72;100.00
37202;BME280;37799;52.390;6.136;2024-01-11T10:05:49;103523.94;;;-2.73;100.00
37202;BME280;37799;52.390;6.136;2024-01-11T10:08:18;103523.88;;;-2.61;100.00
37202;BME280;37799;52.390;6.136;2024-01-11T10:10:44;103524.44;;;-2.53;100.00
37202;BME280;37799;52.390;6.136;2024-01-11T10:13:09;103528.50;;;-2.44;100.00
37202;BME280;37799;52.390;6.136;2024-01-11T10:15:36;103529.19;;;-2.46;100.00
37202;BME280;37799;52.390;6.136;2024-01-11T10:18:01;103541.63;;;-2.38;100.00
37202;BME280;37799;52.390;6.136;2024-01-11T10:20:26;103542.59;;;-2.35;100.00
37202;BME280;37799;52.390;6.136;2024-01-11T10:22:56;103550.56;;;-2.31;100.00
37202;BME280;37799;52.390;6.136;2024-01-11T10:25:22;103548.63;;;-2.22;100.00
37202;BME280;37799;52.390;6.136;2024-01-11T10:27:48;103545.75;;;-2.15;100.00
37202;BME280;37799;52.390;6.136;2024-01-11T10:30:15;103537.47;;;-2.12;100.00
37202;BME280;37799;52.390;6.136;2024-01-11T10:32:45;103540.84;;;-2.00;100.00
37202;BME280;37799;52.390;6.136;2024-01-11T10:35:10;103536.75;;;-1.98;100.00
37202;BME280;37799;52.390;6.136;2024-01-11T10:37:36;103539.03;;;-1.89;100.00
37202;BME280;37799;52.390;6.136;2024-01-11T10:40:05;103547.34;;;-1.92;100.00
37202;BME280;37799;52.390;6.136;2024-01-11T10:42:44;103552.16;;;-1.83;100.00
37202;BME280;37799;52.390;6.136;2024-01-11T10:45:14;103539.88;;;-1.77;100.00
37202;BME280;37799;52.390;6.136;2024-01-11T10:47:53;103542.91;;;-1.69;100.00
37202;BME280;37799;52.390;6.136;2024-01-11T10:50:19;103541.00;;;-1.60;100.00
37202;BME280;37799;52.390;6.136;2024-01-11T10:53:21;103537.13;;;-1.55;100.00
37202;BME280;37799;52.390;6.136;2024-01-11T10:55:50;103530.88;;;-1.47;100.00
37202;BME280;37799;52.390;6.136;2024-01-11T10:58:15;103532.88;;;-1.43;100.00
37202;BME280;37799;52.390;6.136;2024-01-11T11:00:41;103544.16;;;-1.51;100.00
37202;BME280;37799;52.390;6.136;2024-01-11T11:03:07;103541.16;;;-1.32;100.00
37202;BME280;37799;52.390;6.136;2024-01-11T11:05:37;103545.38;;;-1.33;100.00
37202;BME280;37799;52.390;6.136;2024-01-11T11:08:03;103541.03;;;-1.47;100.00
37202;BME280;37799;52.390;6.136;2024-01-11T11:10:32;103527.81;;;-1.30;100.00
37202;BME280;37799;52.390;6.136;2024-01-11T11:12:58;103530.72;;;-1.37;100.00
37202;BME280;37799;52.390;6.136;2024-01-11T11:15:27;103508.81;;;-1.22;100.00
37202;BME280;37799;52.390;6.136;2024-01-11T11:17:52;103526.16;;;-1.29;100.00
37202;BME280;37799;52.390;6.136;2024-01-11T11:20:18;103529.16;;;-1.35;100.00
37202;BME280;37799;52.390;6.136;2024-01-11T11:22:49;103531.31;;;-1.28;100.00
37202;BME280;37799;52.390;6.136;2024-01-11T11:25:29;103525.16;;;-1.18;100.00
37202;BME280;37799;52.390;6.136;2024-01-11T11:27:55;103512.34;;;-1.06;100.00
37202;BME280;37799;52.390;6.136;2024-01-11T11:30:20;103516.47;;;-1.08;100.00
37202;BME280;37799;52.390;6.136;2024-01-11T11:32:46;103507.59;;;-1.02;100.00
37202;BME280;37799;52.390;6.136;2024-01-11T11:35:11;103482.13;;;-0.75;100.00
37202;BME280;37799;52.390;6.136;2024-01-11T11:37:38;103488.78;;;-0.77;100.00
37202;BME280;37799;52.390;6.136;2024-01-11T11:40:05;103478.72;;;-0.76;100.00
37202;BME280;37799;52.390;6.136;2024-01-11T11:42:34;103484.94;;;-0.71;100.00
37202;BME280;37799;52.390;6.136;2024-01-11T11:44:59;103487.22;;;-0.34;100.00
37202;BME280;37799;52.390;6.136;2024-01-11T11:47:33;103479.53;;;-0.21;100.00
37202;BME280;37799;52.390;6.136;2024-01-11T11:50:07;103466.63;;;-0.52;100.00
37202;BME280;37799;52.390;6.136;2024-01-11T11:52:34;103471.38;;;-0.43;100.00
37202;BME280;37799;52.390;6.136;2024-01-11T11:55:01;103472.69;;;-0.50;100.00
37202;BME280;37799;52.390;6.136;2024-01-11T11:57:27;103469.44;;;-0.47;100.00
37202;BME280;37799;52.390;6.136;2024-01-11T11:59:56;103470.59;;;-0.42;100.00
37202;BME280;37799;52.390;6.136;2024-01-11T12:02:22;103475.97;;;-0.38;100.00
37202;BME280;37799;52.390;6.136;2024-01-11T12:04:48;103482.50;;;-0.28;100.00
37202;BME280;37799;52.390;6.136;2024-01-11T12:07:14;103484.47;;;-0.24;100.00
37202;BME280;37799;52.390;6.136;2024-01-11T12:09:40;103471.25;;;-0.32;100.00
37202;BME280;37799;52.390;6.136;2024-01-11T12:12:05;103468.22;;;-0.39;100.00
37202;BME280;37799;52.390;6.136;2024-01-11T12:14:31;103459.88;;;-0.23;100.00
37202;BME280;37799;52.390;6.136;2024-01-11T12:16:59;103458.38;;;-0.20;100.00
37202;BME280;37799;52.390;6.136;2024-01-11T12:19:25;103455.03;;;-0.19;100.00
37202;BME280;37799;52.390;6.136;2024-01-11T12:21:51;103449.16;;;-0.18;100.00
37202;BME280;37799;52.390;6.136;2024-01-11T12:24:16;103452.50;;;-0.19;100.00
37202;BME280;37799;52.390;6.136;2024-01-11T12:26:43;103447.41;;;-0.19;100.00
37202;BME280;37799;52.390;6.136;2024-01-11T12:29:08;103444.53;;;-0.10;100.00
37202;BME280;37799;52.390;6.136;2024-01-11T12:31:34;103445.94;;;-0.01;100.00
37202;BME280;37799;52.390;6.136;2024-01-11T12:34:01;103434.97;;;0.01;100.00
37202;BME280;37799;52.390;6.136;2024-01-11T12:36:28;103438.28;;;-0.01;100.00
37202;BME280;37799;52.390;6.136;2024-01-11T12:38:53;103435.34;;;0.07;100.00